Katharina — V2DQ5 — position and weather

sailwx.info

Track history (hours):
 
Tides and Currents Weather Stations Pressure Air Temp Water Temp Dewpoint Dewpoint Depression Visibility Wind Speed Wind Dir Waves Ship Positions

Katharina

Last reported at 2018-Apr-25 09:51 UTC. Time now 2018-Apr-25 10:15 UTC.
Position N 29°45' W 095°17'.

Length 146 m; draft 6.4 m.

Type: Ship. MMSI: 305305000.

Date/timePositionNaut miles runAvg speedWind from/ knotsBaromVisibWave heightAir tempDewpointWater temp
2018-Apr-25 09:51N 29°45' W 095°17'0 0.0
2018-Apr-25 09:30N 29°45' W 095°17'0 0.0
2018-Apr-25 07:36N 29°45' W 095°17'0 0.0
2018-Apr-25 07:21N 29°45' W 095°17'0 0.0
2018-Apr-25 06:51N 29°45' W 095°17'0 0.0
2018-Apr-25 06:24N 29°45' W 095°17'0 0.0
2018-Apr-24 23:10N 29°45' W 095°17'0 1.3
2018-Apr-24 22:59N 29°45' W 095°17'2 4.2
2018-Apr-24 22:29N 29°44' W 095°15'3 5.3
2018-Apr-24 22:00N 29°44' W 095°12'3 6.0
2018-Apr-24 21:30N 29°44' W 095°09'4 7.1
2018-Apr-24 21:01N 29°46' W 095°05'4 8.3
2018-Apr-24 20:30N 29°43' W 095°01'4 8.3
2018-Apr-24 20:00N 29°40' W 094°59'612.7
2018-Apr-24 19:30N 29°34' W 094°56'713.7
2018-Apr-24 19:00N 29°28' W 094°51'715.0
2018-Apr-24 18:30N 29°22' W 094°48'2310.6
2018-Apr-24 16:22N 29°10' W 094°25'2 6.4
2018-Apr-24 16:00N 29°08' W 094°26'4 6.1
2018-Apr-24 15:19N 29°12' W 094°28'3 8.1
2018-Apr-24 15:00N 29°11' W 094°25'6 8.6
2018-Apr-24 14:16N 29°07' W 094°19'3 8.8
2018-Apr-24 13:57N 29°06' W 094°17'7 8.7
2018-Apr-24 13:11N 29°02' W 094°10'4 8.8
2018-Apr-24 12:47N 28°60' W 094°07'14 8.7
2018-Apr-24 11:11N 28°52' W 093°54'2 8.7
2018-Apr-24 10:59N 28°51' W 093°52'5 9.2
2018-Apr-24 10:27N 28°48' W 093°48'  
2018-Apr-20 06:57N 27°36' W 082°43'811.6
2018-Apr-20 06:14N 27°41' W 082°35'312.3
2018-Apr-20 06:00N 27°43' W 082°33'611.6
2018-Apr-20 05:30N 27°48' W 082°29'611.4
2018-Apr-20 05:00N 27°53' W 082°26'3 6.1
2018-Apr-20 04:30N 27°56' W 082°26'0 0.0
2018-Apr-20 03:58N 27°56' W 082°26'0 0.0
2018-Apr-20 03:28N 27°56' W 082°26'0 0.0
2018-Apr-20 02:58N 27°56' W 082°26'0 0.0
2018-Apr-20 02:28N 27°56' W 082°26'0 0.0
2018-Apr-20 01:58N 27°56' W 082°26'0 0.0
2018-Apr-20 01:28N 27°56' W 082°26'0 0.0
2018-Apr-20 00:58N 27°56' W 082°26'0 0.0
2018-Apr-20 00:28N 27°56' W 082°26'0 0.0
2018-Apr-19 23:58N 27°56' W 082°26'0 0.0
2018-Apr-19 23:28N 27°56' W 082°26'0 0.0
2018-Apr-19 22:58N 27°56' W 082°26'0 0.0
2018-Apr-19 22:28N 27°56' W 082°26'0 0.0
2018-Apr-19 21:58N 27°56' W 082°26'0 0.0
2018-Apr-19 21:28N 27°56' W 082°26'0 0.0
2018-Apr-19 20:58N 27°56' W 082°26'0 0.0
2018-Apr-19 20:28N 27°56' W 082°26'0 0.0
2018-Apr-19 19:55N 27°56' W 082°26'0 0.0
2018-Apr-19 19:28N 27°56' W 082°26'0 0.0
2018-Apr-19 18:58N 27°56' W 082°26'0 0.0
2018-Apr-19 18:25N 27°56' W 082°26'0 0.0
2018-Apr-19 17:58N 27°56' W 082°26'0 0.0
2018-Apr-19 17:28N 27°56' W 082°26'0 0.0
2018-Apr-19 16:58N 27°56' W 082°26'0 0.0
2018-Apr-19 16:28N 27°56' W 082°26'0 0.0
2018-Apr-19 15:58N 27°56' W 082°26'0 0.0
2018-Apr-19 15:28N 27°56' W 082°26'0 0.0
2018-Apr-19 14:58N 27°56' W 082°26'0 0.0
2018-Apr-19 14:28N 27°56' W 082°26'0 0.0
2018-Apr-19 13:58N 27°56' W 082°26'0 0.0
2018-Apr-19 13:28N 27°56' W 082°26'0 0.0
2018-Apr-19 12:58N 27°56' W 082°26'0 0.0
2018-Apr-19 12:28N 27°56' W 082°26'0 0.0
2018-Apr-19 11:55N 27°56' W 082°26'0 0.0
2018-Apr-19 11:28N 27°56' W 082°26'0 0.0
2018-Apr-19 10:55N 27°56' W 082°26'0 0.0
2018-Apr-19 10:28N 27°56' W 082°26'0 0.0
2018-Apr-19 09:52N 27°56' W 082°26'0 0.0
2018-Apr-19 09:28N 27°56' W 082°26'0 0.0
2018-Apr-19 08:55N 27°56' W 082°26'0 0.0
2018-Apr-19 08:28N 27°56' W 082°26'0 0.0
2018-Apr-19 07:58N 27°56' W 082°26'0 0.0
2018-Apr-19 07:28N 27°56' W 082°26'0 0.0
2018-Apr-19 06:58N 27°56' W 082°26'0 0.0
2018-Apr-19 06:28N 27°56' W 082°26'0 0.0
2018-Apr-19 05:58N 27°56' W 082°26'0 0.0
2018-Apr-19 05:28N 27°56' W 082°26'0 0.0
2018-Apr-19 04:55N 27°56' W 082°26'0 0.0
2018-Apr-19 04:25N 27°56' W 082°26'0 0.0
2018-Apr-19 03:58N 27°56' W 082°26'0 0.0
2018-Apr-19 03:28N 27°56' W 082°26'0 0.0
2018-Apr-19 02:58N 27°56' W 082°26'0 0.0
2018-Apr-19 02:28N 27°56' W 082°26'0 0.0
2018-Apr-19 01:55N 27°56' W 082°26'0 0.0
2018-Apr-19 01:28N 27°56' W 082°26'0 0.0
2018-Apr-19 00:58N 27°56' W 082°26'0 0.0
2018-Apr-19 00:28N 27°56' W 082°26'0 0.0
2018-Apr-18 23:58N 27°56' W 082°26'0 0.0
2018-Apr-18 23:25N 27°56' W 082°26'0 0.0
2018-Apr-18 22:58N 27°56' W 082°26'0 0.0
2018-Apr-18 22:28N 27°56' W 082°26'0 0.0
2018-Apr-18 21:58N 27°56' W 082°26'0 0.0
2018-Apr-18 21:28N 27°56' W 082°26'0 0.0
2018-Apr-18 20:58N 27°56' W 082°26'0 0.0
2018-Apr-18 20:28N 27°56' W 082°26'0 0.0
2018-Apr-18 19:58N 27°56' W 082°26'0 0.0
2018-Apr-18 19:28N 27°56' W 082°26'0 0.0
2018-Apr-18 18:58N 27°56' W 082°26'0 0.0
2018-Apr-18 18:25N 27°56' W 082°26'0 0.0
2018-Apr-18 17:58N 27°56' W 082°26'0 0.0
2018-Apr-18 17:28N 27°56' W 082°26'0 0.0
2018-Apr-18 16:58N 27°56' W 082°26'0 0.0
2018-Apr-18 16:28N 27°56' W 082°26'0 0.0
2018-Apr-18 15:59N 27°56' W 082°26'1 2.1
2018-Apr-18 15:30N 27°55' W 082°26'4 7.9
2018-Apr-18 15:00N 27°51' W 082°27'510.6
2018-Apr-18 14:30N 27°47' W 082°31'611.2
2018-Apr-18 14:00N 27°42' W 082°33'611.3
2018-Apr-18 13:31N 27°38' W 082°38'611.2
2018-Apr-18 12:59N 27°36' W 082°44'511.3
2018-Apr-18 12:30N 27°36' W 082°50'611.3
2018-Apr-18 12:00N 27°36' W 082°56'5 9.5
2018-Apr-18 11:29N 27°33' W 083°01'610.1
2018-Apr-18 10:55N 27°27' W 083°02'410.2
2018-Apr-18 10:29N 27°23' W 083°03'510.2
2018-Apr-18 09:57N 27°17' W 083°04'610.3
2018-Apr-18 09:23N 27°11' W 083°05'610.3
2018-Apr-18 08:50N 27°06' W 083°06'1610.3
2018-Apr-18 07:17N 26°50' W 083°08'910.4
2018-Apr-18 06:23N 26°41' W 083°08'510.5
2018-Apr-18 05:56N 26°36' W 083°09'1010.5
2018-Apr-18 04:56N 26°26' W 083°09'205 4.7
2018-Apr-16 09:18N 25°31' W 079°30'310.0
2018-Apr-16 08:59N 25°35' W 079°29'5 9.7
2018-Apr-16 08:30N 25°39' W 079°28'5 9.4
2018-Apr-16 08:00N 25°44' W 079°27'5 9.4
2018-Apr-16 07:30N 25°48' W 079°25'49 8.7
2018-Apr-16 01:54N 26°09' W 078°36'511.2
2018-Apr-16 01:25N 26°08' W 078°31'  
Track history (hours):
 
Tides and Currents Weather Stations Pressure Air Temp Water Temp Dewpoint Dewpoint Depression Visibility Wind Speed Wind Dir Waves Ship Positions

Katharina

Last reported at 2018-Apr-25 09:51 UTC. Time now 2018-Apr-25 10:15 UTC.
Position N 29°45' W 095°17'.

Length 146 m; draft 6.4 m.

Type: Ship. MMSI: 305305000.

Date/timePositionNaut miles runAvg speedWind from/ knotsBaromVisibWave heightAir tempDewpointWater temp
2018-Apr-25 09:51N 29°45' W 095°17'0 0.0
2018-Apr-25 09:30N 29°45' W 095°17'0 0.0
2018-Apr-25 07:36N 29°45' W 095°17'0 0.0
2018-Apr-25 07:21N 29°45' W 095°17'0 0.0
2018-Apr-25 06:51N 29°45' W 095°17'0 0.0
2018-Apr-25 06:24N 29°45' W 095°17'0 0.0
2018-Apr-24 23:10N 29°45' W 095°17'0 1.3
2018-Apr-24 22:59N 29°45' W 095°17'2 4.2
2018-Apr-24 22:29N 29°44' W 095°15'3 5.3
2018-Apr-24 22:00N 29°44' W 095°12'3 6.0
2018-Apr-24 21:30N 29°44' W 095°09'4 7.1
2018-Apr-24 21:01N 29°46' W 095°05'4 8.3
2018-Apr-24 20:30N 29°43' W 095°01'4 8.3
2018-Apr-24 20:00N 29°40' W 094°59'612.7
2018-Apr-24 19:30N 29°34' W 094°56'713.7
2018-Apr-24 19:00N 29°28' W 094°51'715.0
2018-Apr-24 18:30N 29°22' W 094°48'2310.6
2018-Apr-24 16:22N 29°10' W 094°25'2 6.4
2018-Apr-24 16:00N 29°08' W 094°26'4 6.1
2018-Apr-24 15:19N 29°12' W 094°28'3 8.1
2018-Apr-24 15:00N 29°11' W 094°25'6 8.6
2018-Apr-24 14:16N 29°07' W 094°19'3 8.8
2018-Apr-24 13:57N 29°06' W 094°17'7 8.7
2018-Apr-24 13:11N 29°02' W 094°10'4 8.8
2018-Apr-24 12:47N 28°60' W 094°07'14 8.7
2018-Apr-24 11:11N 28°52' W 093°54'2 8.7
2018-Apr-24 10:59N 28°51' W 093°52'5 9.2
2018-Apr-24 10:27N 28°48' W 093°48'  
2018-Apr-20 06:57N 27°36' W 082°43'811.6
2018-Apr-20 06:14N 27°41' W 082°35'312.3
2018-Apr-20 06:00N 27°43' W 082°33'611.6
2018-Apr-20 05:30N 27°48' W 082°29'611.4
2018-Apr-20 05:00N 27°53' W 082°26'3 6.1
2018-Apr-20 04:30N 27°56' W 082°26'0 0.0
2018-Apr-20 03:58N 27°56' W 082°26'0 0.0
2018-Apr-20 03:28N 27°56' W 082°26'0 0.0
2018-Apr-20 02:58N 27°56' W 082°26'0 0.0
2018-Apr-20 02:28N 27°56' W 082°26'0 0.0
2018-Apr-20 01:58N 27°56' W 082°26'0 0.0
2018-Apr-20 01:28N 27°56' W 082°26'0 0.0
2018-Apr-20 00:58N 27°56' W 082°26'0 0.0
2018-Apr-20 00:28N 27°56' W 082°26'0 0.0
2018-Apr-19 23:58N 27°56' W 082°26'0 0.0
2018-Apr-19 23:28N 27°56' W 082°26'0 0.0
2018-Apr-19 22:58N 27°56' W 082°26'0 0.0
2018-Apr-19 22:28N 27°56' W 082°26'0 0.0
2018-Apr-19 21:58N 27°56' W 082°26'0 0.0
2018-Apr-19 21:28N 27°56' W 082°26'0 0.0
2018-Apr-19 20:58N 27°56' W 082°26'0 0.0
2018-Apr-19 20:28N 27°56' W 082°26'0 0.0
2018-Apr-19 19:55N 27°56' W 082°26'0 0.0
2018-Apr-19 19:28N 27°56' W 082°26'0 0.0
2018-Apr-19 18:58N 27°56' W 082°26'0 0.0
2018-Apr-19 18:25N 27°56' W 082°26'0 0.0
2018-Apr-19 17:58N 27°56' W 082°26'0 0.0
2018-Apr-19 17:28N 27°56' W 082°26'0 0.0
2018-Apr-19 16:58N 27°56' W 082°26'0 0.0
2018-Apr-19 16:28N 27°56' W 082°26'0 0.0
2018-Apr-19 15:58N 27°56' W 082°26'0 0.0
2018-Apr-19 15:28N 27°56' W 082°26'0 0.0
2018-Apr-19 14:58N 27°56' W 082°26'0 0.0
2018-Apr-19 14:28N 27°56' W 082°26'0 0.0
2018-Apr-19 13:58N 27°56' W 082°26'0 0.0
2018-Apr-19 13:28N 27°56' W 082°26'0 0.0
2018-Apr-19 12:58N 27°56' W 082°26'0 0.0
2018-Apr-19 12:28N 27°56' W 082°26'0 0.0
2018-Apr-19 11:55N 27°56' W 082°26'0 0.0
2018-Apr-19 11:28N 27°56' W 082°26'0 0.0
2018-Apr-19 10:55N 27°56' W 082°26'0 0.0
2018-Apr-19 10:28N 27°56' W 082°26'0 0.0
2018-Apr-19 09:52N 27°56' W 082°26'0 0.0
2018-Apr-19 09:28N 27°56' W 082°26'0 0.0
2018-Apr-19 08:55N 27°56' W 082°26'0 0.0
2018-Apr-19 08:28N 27°56' W 082°26'0 0.0
2018-Apr-19 07:58N 27°56' W 082°26'0 0.0
2018-Apr-19 07:28N 27°56' W 082°26'0 0.0
2018-Apr-19 06:58N 27°56' W 082°26'0 0.0
2018-Apr-19 06:28N 27°56' W 082°26'0 0.0
2018-Apr-19 05:58N 27°56' W 082°26'0 0.0
2018-Apr-19 05:28N 27°56' W 082°26'0 0.0
2018-Apr-19 04:55N 27°56' W 082°26'0 0.0
2018-Apr-19 04:25N 27°56' W 082°26'0 0.0
2018-Apr-19 03:58N 27°56' W 082°26'0 0.0
2018-Apr-19 03:28N 27°56' W 082°26'0 0.0
2018-Apr-19 02:58N 27°56' W 082°26'0 0.0
2018-Apr-19 02:28N 27°56' W 082°26'0 0.0
2018-Apr-19 01:55N 27°56' W 082°26'0 0.0
2018-Apr-19 01:28N 27°56' W 082°26'0 0.0
2018-Apr-19 00:58N 27°56' W 082°26'0 0.0
2018-Apr-19 00:28N 27°56' W 082°26'0 0.0
2018-Apr-18 23:58N 27°56' W 082°26'0 0.0
2018-Apr-18 23:25N 27°56' W 082°26'0 0.0
2018-Apr-18 22:58N 27°56' W 082°26'0 0.0
2018-Apr-18 22:28N 27°56' W 082°26'0 0.0
2018-Apr-18 21:58N 27°56' W 082°26'0 0.0
2018-Apr-18 21:28N 27°56' W 082°26'0 0.0
2018-Apr-18 20:58N 27°56' W 082°26'0 0.0
2018-Apr-18 20:28N 27°56' W 082°26'0 0.0
2018-Apr-18 19:58N 27°56' W 082°26'0 0.0
2018-Apr-18 19:28N 27°56' W 082°26'0 0.0
2018-Apr-18 18:58N 27°56' W 082°26'0 0.0
2018-Apr-18 18:25N 27°56' W 082°26'0 0.0
2018-Apr-18 17:58N 27°56' W 082°26'0 0.0
2018-Apr-18 17:28N 27°56' W 082°26'0 0.0
2018-Apr-18 16:58N 27°56' W 082°26'0 0.0
2018-Apr-18 16:28N 27°56' W 082°26'0 0.0
2018-Apr-18 15:59N 27°56' W 082°26'1 2.1
2018-Apr-18 15:30N 27°55' W 082°26'4 7.9
2018-Apr-18 15:00N 27°51' W 082°27'510.6
2018-Apr-18 14:30N 27°47' W 082°31'611.2
2018-Apr-18 14:00N 27°42' W 082°33'611.3
2018-Apr-18 13:31N 27°38' W 082°38'611.2
2018-Apr-18 12:59N 27°36' W 082°44'511.3
2018-Apr-18 12:30N 27°36' W 082°50'611.3
2018-Apr-18 12:00N 27°36' W 082°56'5 9.5
2018-Apr-18 11:29N 27°33' W 083°01'610.1
2018-Apr-18 10:55N 27°27' W 083°02'410.2
2018-Apr-18 10:29N 27°23' W 083°03'510.2
2018-Apr-18 09:57N 27°17' W 083°04'610.3
2018-Apr-18 09:23N 27°11' W 083°05'610.3
2018-Apr-18 08:50N 27°06' W 083°06'1610.3
2018-Apr-18 07:17N 26°50' W 083°08'910.4
2018-Apr-18 06:23N 26°41' W 083°08'510.5
2018-Apr-18 05:56N 26°36' W 083°09'1010.5
2018-Apr-18 04:56N 26°26' W 083°09'205 4.7
2018-Apr-16 09:18N 25°31' W 079°30'310.0
2018-Apr-16 08:59N 25°35' W 079°29'5 9.7
2018-Apr-16 08:30N 25°39' W 079°28'5 9.4
2018-Apr-16 08:00N 25°44' W 079°27'5 9.4
2018-Apr-16 07:30N 25°48' W 079°25'49 8.7
2018-Apr-16 01:54N 26°09' W 078°36'511.2
2018-Apr-16 01:25N 26°08' W 078°31'  

Dump ship's entire track history